sensor_id;sensor_type;location;lat;lon;timestamp;P1;durP1;ratioP1;P2;durP2;ratioP2
58071;SDS011;60383;46.626;18.866;2023-06-14T00:01:37;2.70;;;1.65;;
58071;SDS011;60383;46.626;18.866;2023-06-14T00:04:03;2.25;;;1.60;;
58071;SDS011;60383;46.626;18.866;2023-06-14T00:06:30;3.08;;;1.50;;
58071;SDS011;60383;46.626;18.866;2023-06-14T00:08:55;2.92;;;2.05;;
58071;SDS011;60383;46.626;18.866;2023-06-14T00:11:21;2.47;;;1.55;;
58071;SDS011;60383;46.626;18.866;2023-06-14T00:13:46;2.88;;;1.85;;
58071;SDS011;60383;46.626;18.866;2023-06-14T00:16:12;3.25;;;1.75;;
58071;SDS011;60383;46.626;18.866;2023-06-14T00:18:38;2.75;;;1.58;;
58071;SDS011;60383;46.626;18.866;2023-06-14T00:21:04;2.05;;;1.55;;
58071;SDS011;60383;46.626;18.866;2023-06-14T00:23:30;2.13;;;1.75;;
58071;SDS011;60383;46.626;18.866;2023-06-14T00:25:56;3.25;;;2.03;;
58071;SDS011;60383;46.626;18.866;2023-06-14T00:28:21;2.67;;;1.70;;
58071;SDS011;60383;46.626;18.866;2023-06-14T00:30:47;2.38;;;1.70;;
58071;SDS011;60383;46.626;18.866;2023-06-14T00:33:12;3.63;;;1.88;;
58071;SDS011;60383;46.626;18.866;2023-06-14T00:35:38;3.83;;;1.83;;
58071;SDS011;60383;46.626;18.866;2023-06-14T00:38:04;3.15;;;1.98;;
58071;SDS011;60383;46.626;18.866;2023-06-14T00:40:29;2.90;;;2.10;;
58071;SDS011;60383;46.626;18.866;2023-06-14T00:42:55;5.63;;;1.90;;
58071;SDS011;60383;46.626;18.866;2023-06-14T00:45:21;1.65;;;1.40;;
58071;SDS011;60383;46.626;18.866;2023-06-14T00:47:46;3.45;;;2.03;;
58071;SDS011;60383;46.626;18.866;2023-06-14T00:50:16;3.28;;;1.92;;
58071;SDS011;60383;46.626;18.866;2023-06-14T00:52:41;2.67;;;1.95;;
58071;SDS011;60383;46.626;18.866;2023-06-14T00:55:07;2.67;;;2.00;;
58071;SDS011;60383;46.626;18.866;2023-06-14T00:57:33;2.78;;;1.73;;
58071;SDS011;60383;46.626;18.866;2023-06-14T01:00:02;3.80;;;1.75;;
58071;SDS011;60383;46.626;18.866;2023-06-14T01:02:29;2.83;;;1.75;;
58071;SDS011;60383;46.626;18.866;2023-06-14T01:04:55;1.65;;;1.45;;
58071;SDS011;60383;46.626;18.866;2023-06-14T01:15:23;2.85;;;1.65;;
58071;SDS011;60383;46.626;18.866;2023-06-14T01:17:50;3.00;;;2.17;;
58071;SDS011;60383;46.626;18.866;2023-06-14T01:20:19;3.05;;;1.98;;
58071;SDS011;60383;46.626;18.866;2023-06-14T01:22:53;2.72;;;1.90;;
58071;SDS011;60383;46.626;18.866;2023-06-14T01:25:22;2.65;;;2.00;;
58071;SDS011;60383;46.626;18.866;2023-06-14T01:27:49;2.73;;;1.70;;
58071;SDS011;60383;46.626;18.866;2023-06-14T01:30:20;2.30;;;2.03;;
58071;SDS011;60383;46.626;18.866;2023-06-14T01:32:48;3.10;;;1.90;;
58071;SDS011;60383;46.626;18.866;2023-06-14T01:35:15;2.20;;;1.75;;
58071;SDS011;60383;46.626;18.866;2023-06-14T01:37:41;2.53;;;1.90;;
58071;SDS011;60383;46.626;18.866;2023-06-14T01:40:09;3.25;;;1.75;;
58071;SDS011;60383;46.626;18.866;2023-06-14T01:42:37;3.08;;;2.03;;
58071;SDS011;60383;46.626;18.866;2023-06-14T01:45:04;3.35;;;1.90;;
58071;SDS011;60383;46.626;18.866;2023-06-14T01:47:31;3.72;;;2.50;;
58071;SDS011;60383;46.626;18.866;2023-06-14T01:49:57;4.00;;;2.03;;
58071;SDS011;60383;46.626;18.866;2023-06-14T01:52:23;2.75;;;2.28;;
58071;SDS011;60383;46.626;18.866;2023-06-14T01:54:49;3.50;;;2.47;;
58071;SDS011;60383;46.626;18.866;2023-06-14T01:57:15;3.95;;;2.28;;
58071;SDS011;60383;46.626;18.866;2023-06-14T01:59:41;3.22;;;2.08;;
58071;SDS011;60383;46.626;18.866;2023-06-14T02:02:06;4.18;;;2.13;;
58071;SDS011;60383;46.626;18.866;2023-06-14T02:04:32;3.63;;;1.70;;
58071;SDS011;60383;46.626;18.866;2023-06-14T02:06:58;2.50;;;1.60;;
58071;SDS011;60383;46.626;18.866;2023-06-14T02:09:24;2.08;;;1.67;;
58071;SDS011;60383;46.626;18.866;2023-06-14T02:11:50;2.15;;;1.73;;
58071;SDS011;60383;46.626;18.866;2023-06-14T02:14:15;2.97;;;1.95;;
58071;SDS011;60383;46.626;18.866;2023-06-14T02:16:41;2.88;;;2.00;;
58071;SDS011;60383;46.626;18.866;2023-06-14T02:19:14;3.35;;;1.80;;
58071;SDS011;60383;46.626;18.866;2023-06-14T02:21:43;2.80;;;1.80;;
58071;SDS011;60383;46.626;18.866;2023-06-14T02:24:09;2.35;;;1.95;;
58071;SDS011;60383;46.626;18.866;2023-06-14T02:26:35;3.25;;;1.70;;
58071;SDS011;60383;46.626;18.866;2023-06-14T02:29:02;2.15;;;1.60;;
58071;SDS011;60383;46.626;18.866;2023-06-14T02:31:33;3.85;;;1.67;;
58071;SDS011;60383;46.626;18.866;2023-06-14T02:33:59;2.55;;;2.00;;
58071;SDS011;60383;46.626;18.866;2023-06-14T02:36:25;2.10;;;1.88;;
58071;SDS011;60383;46.626;18.866;2023-06-14T02:38:51;2.33;;;1.52;;
58071;SDS011;60383;46.626;18.866;2023-06-14T02:41:19;2.42;;;1.92;;
58071;SDS011;60383;46.626;18.866;2023-06-14T02:43:44;2.70;;;1.85;;
58071;SDS011;60383;46.626;18.866;2023-06-14T02:46:10;2.55;;;2.00;;
58071;SDS011;60383;46.626;18.866;2023-06-14T02:48:36;1.80;;;1.63;;
58071;SDS011;60383;46.626;18.866;2023-06-14T02:51:01;2.42;;;1.80;;
58071;SDS011;60383;46.626;18.866;2023-06-14T02:53:27;2.30;;;1.80;;
58071;SDS011;60383;46.626;18.866;2023-06-14T02:55:52;1.98;;;1.70;;
58071;SDS011;60383;46.626;18.866;2023-06-14T02:58:20;2.47;;;1.65;;
58071;SDS011;60383;46.626;18.866;2023-06-14T03:00:46;2.30;;;1.80;;
58071;SDS011;60383;46.626;18.866;2023-06-14T03:03:11;2.28;;;1.65;;
58071;SDS011;60383;46.626;18.866;2023-06-14T03:05:44;1.90;;;1.67;;
58071;SDS011;60383;46.626;18.866;2023-06-14T03:08:12;2.22;;;1.75;;
58071;SDS011;60383;46.626;18.866;2023-06-14T03:10:44;2.60;;;1.80;;
58071;SDS011;60383;46.626;18.866;2023-06-14T03:13:10;2.10;;;1.63;;
58071;SDS011;60383;46.626;18.866;2023-06-14T03:15:37;3.17;;;2.15;;
58071;SDS011;60383;46.626;18.866;2023-06-14T03:18:03;1.67;;;1.50;;
58071;SDS011;60383;46.626;18.866;2023-06-14T03:20:29;3.63;;;1.92;;
58071;SDS011;60383;46.626;18.866;2023-06-14T03:22:58;4.15;;;2.17;;
58071;SDS011;60383;46.626;18.866;2023-06-14T03:25:27;4.22;;;2.10;;
58071;SDS011;60383;46.626;18.866;2023-06-14T03:27:57;2.38;;;1.75;;
58071;SDS011;60383;46.626;18.866;2023-06-14T03:30:22;2.00;;;1.58;;
58071;SDS011;60383;46.626;18.866;2023-06-14T03:32:48;5.63;;;2.10;;
58071;SDS011;60383;46.626;18.866;2023-06-14T03:35:14;2.83;;;2.00;;
58071;SDS011;60383;46.626;18.866;2023-06-14T03:37:43;5.22;;;1.90;;
58071;SDS011;60383;46.626;18.866;2023-06-14T03:40:09;2.97;;;2.00;;
58071;SDS011;60383;46.626;18.866;2023-06-14T03:42:36;3.00;;;1.75;;
58071;SDS011;60383;46.626;18.866;2023-06-14T03:45:01;2.58;;;2.13;;
58071;SDS011;60383;46.626;18.866;2023-06-14T03:47:27;2.72;;;2.05;;
58071;SDS011;60383;46.626;18.866;2023-06-14T03:49:52;3.55;;;2.40;;
58071;SDS011;60383;46.626;18.866;2023-06-14T03:52:18;4.05;;;2.08;;
58071;SDS011;60383;46.626;18.866;2023-06-14T03:54:43;4.15;;;2.70;;
58071;SDS011;60383;46.626;18.866;2023-06-14T03:57:09;3.03;;;2.10;;
58071;SDS011;60383;46.626;18.866;2023-06-14T03:59:35;4.88;;;2.22;;
58071;SDS011;60383;46.626;18.866;2023-06-14T04:02:01;2.85;;;2.10;;
58071;SDS011;60383;46.626;18.866;2023-06-14T04:04:27;3.63;;;2.28;;
58071;SDS011;60383;46.626;18.866;2023-06-14T04:06:54;3.30;;;1.92;;
58071;SDS011;60383;46.626;18.866;2023-06-14T04:09:24;3.13;;;1.85;;
58071;SDS011;60383;46.626;18.866;2023-06-14T04:11:52;2.95;;;2.38;;
58071;SDS011;60383;46.626;18.866;2023-06-14T04:14:21;3.65;;;2.30;;
58071;SDS011;60383;46.626;18.866;2023-06-14T04:16:47;2.40;;;1.88;;
58071;SDS011;60383;46.626;18.866;2023-06-14T04:19:14;3.78;;;1.90;;
58071;SDS011;60383;46.626;18.866;2023-06-14T04:21:40;3.25;;;2.13;;
58071;SDS011;60383;46.626;18.866;2023-06-14T04:24:05;3.30;;;2.40;;
58071;SDS011;60383;46.626;18.866;2023-06-14T04:26:31;3.10;;;2.00;;
58071;SDS011;60383;46.626;18.866;2023-06-14T04:28:58;2.67;;;1.90;;
58071;SDS011;60383;46.626;18.866;2023-06-14T04:31:27;3.45;;;2.15;;
58071;SDS011;60383;46.626;18.866;2023-06-14T04:33:58;2.33;;;2.00;;
58071;SDS011;60383;46.626;18.866;2023-06-14T04:36:25;3.42;;;1.92;;
58071;SDS011;60383;46.626;18.866;2023-06-14T04:38:52;3.40;;;2.00;;
58071;SDS011;60383;46.626;18.866;2023-06-14T04:41:22;2.97;;;2.13;;
58071;SDS011;60383;46.626;18.866;2023-06-14T04:43:48;4.78;;;2.38;;
58071;SDS011;60383;46.626;18.866;2023-06-14T04:46:15;2.50;;;1.90;;
58071;SDS011;60383;46.626;18.866;2023-06-14T04:48:40;4.63;;;2.13;;
58071;SDS011;60383;46.626;18.866;2023-06-14T04:51:10;3.10;;;2.13;;
58071;SDS011;60383;46.626;18.866;2023-06-14T04:53:35;3.22;;;2.00;;
58071;SDS011;60383;46.626;18.866;2023-06-14T04:56:02;4.13;;;2.30;;
58071;SDS011;60383;46.626;18.866;2023-06-14T04:58:28;3.42;;;2.65;;
58071;SDS011;60383;46.626;18.866;2023-06-14T05:00:54;2.97;;;2.17;;
58071;SDS011;60383;46.626;18.866;2023-06-14T05:03:21;3.50;;;2.20;;
58071;SDS011;60383;46.626;18.866;2023-06-14T05:05:49;2.83;;;1.88;;
58071;SDS011;60383;46.626;18.866;2023-06-14T05:08:15;4.95;;;1.55;;
58071;SDS011;60383;46.626;18.866;2023-06-14T05:10:41;4.28;;;2.22;;
58071;SDS011;60383;46.626;18.866;2023-06-14T05:13:06;3.00;;;2.20;;
58071;SDS011;60383;46.626;18.866;2023-06-14T05:15:32;3.22;;;2.15;;
58071;SDS011;60383;46.626;18.866;2023-06-14T05:17:57;3.70;;;2.60;;
58071;SDS011;60383;46.626;18.866;2023-06-14T05:20:23;4.00;;;2.85;;
58071;SDS011;60383;46.626;18.866;2023-06-14T05:22:50;4.20;;;2.60;;
58071;SDS011;60383;46.626;18.866;2023-06-14T05:25:18;4.38;;;2.50;;
58071;SDS011;60383;46.626;18.866;2023-06-14T05:27:45;3.17;;;2.47;;
58071;SDS011;60383;46.626;18.866;2023-06-14T05:30:10;4.18;;;2.65;;
58071;SDS011;60383;46.626;18.866;2023-06-14T05:32:36;4.78;;;2.35;;
58071;SDS011;60383;46.626;18.866;2023-06-14T05:35:02;5.82;;;3.03;;
58071;SDS011;60383;46.626;18.866;2023-06-14T05:37:28;4.00;;;2.53;;
58071;SDS011;60383;46.626;18.866;2023-06-14T05:39:54;4.35;;;2.50;;
58071;SDS011;60383;46.626;18.866;2023-06-14T05:42:19;2.95;;;2.38;;
58071;SDS011;60383;46.626;18.866;2023-06-14T05:44:45;3.22;;;2.25;;
58071;SDS011;60383;46.626;18.866;2023-06-14T05:47:10;4.75;;;3.17;;
58071;SDS011;60383;46.626;18.866;2023-06-14T05:49:36;3.53;;;2.60;;
58071;SDS011;60383;46.626;18.866;2023-06-14T05:52:01;4.28;;;2.72;;
58071;SDS011;60383;46.626;18.866;2023-06-14T05:54:27;3.67;;;2.40;;
58071;SDS011;60383;46.626;18.866;2023-06-14T05:56:52;3.10;;;2.35;;
58071;SDS011;60383;46.626;18.866;2023-06-14T05:59:18;4.10;;;2.67;;
58071;SDS011;60383;46.626;18.866;2023-06-14T06:01:43;4.00;;;2.67;;
58071;SDS011;60383;46.626;18.866;2023-06-14T06:04:09;3.65;;;2.80;;
58071;SDS011;60383;46.626;18.866;2023-06-14T06:06:34;4.60;;;2.47;;
58071;SDS011;60383;46.626;18.866;2023-06-14T06:09:00;3.83;;;2.55;;
58071;SDS011;60383;46.626;18.866;2023-06-14T06:11:26;5.03;;;2.83;;
58071;SDS011;60383;46.626;18.866;2023-06-14T06:13:51;4.85;;;2.72;;
58071;SDS011;60383;46.626;18.866;2023-06-14T06:16:17;4.47;;;2.53;;
58071;SDS011;60383;46.626;18.866;2023-06-14T06:18:42;3.17;;;2.08;;
58071;SDS011;60383;46.626;18.866;2023-06-14T06:21:08;3.63;;;2.63;;
58071;SDS011;60383;46.626;18.866;2023-06-14T06:23:33;3.75;;;2.50;;
58071;SDS011;60383;46.626;18.866;2023-06-14T06:25:59;3.08;;;2.40;;
58071;SDS011;60383;46.626;18.866;2023-06-14T06:28:24;3.25;;;2.20;;
58071;SDS011;60383;46.626;18.866;2023-06-14T06:30:50;3.65;;;2.30;;
58071;SDS011;60383;46.626;18.866;2023-06-14T06:33:15;3.22;;;2.15;;
58071;SDS011;60383;46.626;18.866;2023-06-14T06:35:41;3.67;;;2.40;;
58071;SDS011;60383;46.626;18.866;2023-06-14T06:38:07;2.95;;;2.33;;
58071;SDS011;60383;46.626;18.866;2023-06-14T06:40:35;3.63;;;2.25;;
58071;SDS011;60383;46.626;18.866;2023-06-14T06:43:01;3.47;;;2.60;;
58071;SDS011;60383;46.626;18.866;2023-06-14T06:45:27;2.55;;;2.08;;
58071;SDS011;60383;46.626;18.866;2023-06-14T06:47:53;3.38;;;2.70;;
58071;SDS011;60383;46.626;18.866;2023-06-14T06:50:18;3.67;;;2.42;;
58071;SDS011;60383;46.626;18.866;2023-06-14T06:52:44;2.92;;;2.38;;
58071;SDS011;60383;46.626;18.866;2023-06-14T06:55:10;5.50;;;2.45;;
58071;SDS011;60383;46.626;18.866;2023-06-14T06:57:36;5.28;;;2.25;;
58071;SDS011;60383;46.626;18.866;2023-06-14T07:00:02;4.80;;;2.75;;
58071;SDS011;60383;46.626;18.866;2023-06-14T07:02:32;3.60;;;1.90;;
58071;SDS011;60383;46.626;18.866;2023-06-14T07:04:58;3.60;;;2.60;;
58071;SDS011;60383;46.626;18.866;2023-06-14T07:07:23;2.92;;;2.15;;
58071;SDS011;60383;46.626;18.866;2023-06-14T07:09:49;3.70;;;2.47;;
58071;SDS011;60383;46.626;18.866;2023-06-14T07:12:15;2.67;;;2.10;;
58071;SDS011;60383;46.626;18.866;2023-06-14T07:14:41;4.00;;;2.20;;
58071;SDS011;60383;46.626;18.866;2023-06-14T07:17:06;3.15;;;2.15;;
58071;SDS011;60383;46.626;18.866;2023-06-14T07:19:32;4.07;;;2.25;;
58071;SDS011;60383;46.626;18.866;2023-06-14T07:21:58;4.70;;;2.50;;
58071;SDS011;60383;46.626;18.866;2023-06-14T07:24:23;2.53;;;2.15;;
58071;SDS011;60383;46.626;18.866;2023-06-14T07:26:49;4.75;;;2.47;;
58071;SDS011;60383;46.626;18.866;2023-06-14T07:29:14;3.25;;;2.25;;
58071;SDS011;60383;46.626;18.866;2023-06-14T07:31:41;3.78;;;2.13;;
58071;SDS011;60383;46.626;18.866;2023-06-14T07:34:07;3.97;;;2.20;;
58071;SDS011;60383;46.626;18.866;2023-06-14T07:36:32;4.28;;;2.20;;
58071;SDS011;60383;46.626;18.866;2023-06-14T07:38:57;3.22;;;2.20;;
58071;SDS011;60383;46.626;18.866;2023-06-14T07:41:23;2.47;;;2.05;;
58071;SDS011;60383;46.626;18.866;2023-06-14T07:43:49;3.13;;;2.25;;
58071;SDS011;60383;46.626;18.866;2023-06-14T07:46:14;2.35;;;1.88;;
58071;SDS011;60383;46.626;18.866;2023-06-14T07:48:40;4.78;;;2.50;;
58071;SDS011;60383;46.626;18.866;2023-06-14T07:51:05;3.67;;;1.90;;
58071;SDS011;60383;46.626;18.866;2023-06-14T07:53:31;4.53;;;2.38;;
58071;SDS011;60383;46.626;18.866;2023-06-14T07:55:56;4.00;;;2.10;;
58071;SDS011;60383;46.626;18.866;2023-06-14T07:58:22;3.17;;;1.98;;
58071;SDS011;60383;46.626;18.866;2023-06-14T08:00:48;4.65;;;2.30;;
58071;SDS011;60383;46.626;18.866;2023-06-14T08:03:13;2.35;;;1.95;;
58071;SDS011;60383;46.626;18.866;2023-06-14T08:05:39;2.65;;;2.05;;
58071;SDS011;60383;46.626;18.866;2023-06-14T08:08:04;2.75;;;1.92;;
58071;SDS011;60383;46.626;18.866;2023-06-14T08:10:30;2.15;;;1.60;;
58071;SDS011;60383;46.626;18.866;2023-06-14T08:12:55;2.63;;;1.85;;
58071;SDS011;60383;46.626;18.866;2023-06-14T08:15:21;2.50;;;1.70;;
58071;SDS011;60383;46.626;18.866;2023-06-14T08:17:46;2.85;;;2.05;;
58071;SDS011;60383;46.626;18.866;2023-06-14T08:20:12;1.98;;;1.77;;
58071;SDS011;60383;46.626;18.866;2023-06-14T08:22:41;2.28;;;1.65;;
58071;SDS011;60383;46.626;18.866;2023-06-14T08:25:07;2.20;;;1.73;;
58071;SDS011;60383;46.626;18.866;2023-06-14T08:27:33;2.03;;;1.70;;
58071;SDS011;60383;46.626;18.866;2023-06-14T08:29:59;2.30;;;1.65;;
58071;SDS011;60383;46.626;18.866;2023-06-14T08:32:25;2.33;;;1.90;;
58071;SDS011;60383;46.626;18.866;2023-06-14T08:34:50;2.13;;;1.35;;
58071;SDS011;60383;46.626;18.866;2023-06-14T08:37:16;1.88;;;1.40;;
58071;SDS011;60383;46.626;18.866;2023-06-14T08:39:41;2.80;;;1.55;;
58071;SDS011;60383;46.626;18.866;2023-06-14T08:42:09;2.33;;;1.40;;
58071;SDS011;60383;46.626;18.866;2023-06-14T08:44:35;1.55;;;1.17;;
58071;SDS011;60383;46.626;18.866;2023-06-14T08:47:01;2.15;;;1.60;;
58071;SDS011;60383;46.626;18.866;2023-06-14T08:49:28;2.05;;;1.38;;
58071;SDS011;60383;46.626;18.866;2023-06-14T08:51:59;2.38;;;1.70;;
58071;SDS011;60383;46.626;18.866;2023-06-14T08:54:29;2.13;;;1.45;;
58071;SDS011;60383;46.626;18.866;2023-06-14T08:56:58;2.42;;;1.52;;
58071;SDS011;60383;46.626;18.866;2023-06-14T08:59:25;3.28;;;1.52;;
58071;SDS011;60383;46.626;18.866;2023-06-14T09:01:51;3.65;;;1.60;;
58071;SDS011;60383;46.626;18.866;2023-06-14T09:04:18;2.30;;;1.52;;
58071;SDS011;60383;46.626;18.866;2023-06-14T09:06:45;1.52;;;1.40;;
58071;SDS011;60383;46.626;18.866;2023-06-14T09:09:11;1.70;;;1.38;;
58071;SDS011;60383;46.626;18.866;2023-06-14T09:11:37;1.65;;;1.55;;
58071;SDS011;60383;46.626;18.866;2023-06-14T09:14:03;3.60;;;1.23;;
58071;SDS011;60383;46.626;18.866;2023-06-14T09:16:31;2.22;;;1.73;;
58071;SDS011;60383;46.626;18.866;2023-06-14T09:18:58;1.52;;;1.40;;
58071;SDS011;60383;46.626;18.866;2023-06-14T09:21:23;2.40;;;1.48;;
58071;SDS011;60383;46.626;18.866;2023-06-14T09:23:49;1.50;;;1.40;;
58071;SDS011;60383;46.626;18.866;2023-06-14T09:26:15;2.10;;;1.70;;
58071;SDS011;60383;46.626;18.866;2023-06-14T09:28:43;1.63;;;1.50;;
58071;SDS011;60383;46.626;18.866;2023-06-14T09:31:12;3.08;;;1.70;;
58071;SDS011;60383;46.626;18.866;2023-06-14T09:33:38;1.42;;;1.30;;
58071;SDS011;60383;46.626;18.866;2023-06-14T09:36:09;2.17;;;1.48;;
58071;SDS011;60383;46.626;18.866;2023-06-14T09:38:39;2.70;;;1.60;;
58071;SDS011;60383;46.626;18.866;2023-06-14T09:41:05;1.63;;;1.23;;
58071;SDS011;60383;46.626;18.866;2023-06-14T09:43:31;1.95;;;1.40;;
58071;SDS011;60383;46.626;18.866;2023-06-14T09:45:59;2.08;;;1.42;;
58071;SDS011;60383;46.626;18.866;2023-06-14T09:48:26;1.85;;;1.67;;
58071;SDS011;60383;46.626;18.866;2023-06-14T09:50:51;1.65;;;1.27;;
58071;SDS011;60383;46.626;18.866;2023-06-14T09:53:21;1.73;;;1.40;;
58071;SDS011;60383;46.626;18.866;2023-06-14T09:56:07;1.50;;;1.40;;
58071;SDS011;60383;46.626;18.866;2023-06-14T09:58:32;2.13;;;1.40;;
58071;SDS011;60383;46.626;18.866;2023-06-14T10:01:04;1.45;;;1.30;;
58071;SDS011;60383;46.626;18.866;2023-06-14T10:03:33;2.38;;;1.73;;
58071;SDS011;60383;46.626;18.866;2023-06-14T10:06:02;2.22;;;1.70;;
58071;SDS011;60383;46.626;18.866;2023-06-14T10:08:33;2.08;;;1.60;;
58071;SDS011;60383;46.626;18.866;2023-06-14T10:11:02;1.83;;;1.42;;
58071;SDS011;60383;46.626;18.866;2023-06-14T10:13:28;1.65;;;1.38;;
58071;SDS011;60383;46.626;18.866;2023-06-14T10:18:58;1.80;;;1.30;;
58071;SDS011;60383;46.626;18.866;2023-06-14T10:21:45;2.35;;;1.65;;
58071;SDS011;60383;46.626;18.866;2023-06-14T10:24:18;2.38;;;1.50;;
58071;SDS011;60383;46.626;18.866;2023-06-14T10:26:53;1.40;;;1.30;;
58071;SDS011;60383;46.626;18.866;2023-06-14T10:29:19;1.83;;;1.50;;
58071;SDS011;60383;46.626;18.866;2023-06-14T10:31:46;2.70;;;1.70;;
58071;SDS011;60383;46.626;18.866;2023-06-14T10:34:22;1.60;;;1.50;;
58071;SDS011;60383;46.626;18.866;2023-06-14T10:37:02;1.50;;;1.40;;
58071;SDS011;60383;46.626;18.866;2023-06-14T10:39:37;2.33;;;1.70;;
58071;SDS011;60383;46.626;18.866;2023-06-14T10:44:32;2.55;;;1.83;;
58071;SDS011;60383;46.626;18.866;2023-06-14T10:46:59;4.55;;;1.67;;
58071;SDS011;60383;46.626;18.866;2023-06-14T10:52:12;2.15;;;1.65;;
58071;SDS011;60383;46.626;18.866;2023-06-14T10:57:48;3.03;;;1.63;;
58071;SDS011;60383;46.626;18.866;2023-06-14T11:00:21;3.35;;;1.67;;
58071;SDS011;60383;46.626;18.866;2023-06-14T11:02:51;2.10;;;1.90;;
58071;SDS011;60383;46.626;18.866;2023-06-14T11:05:26;2.75;;;1.83;;
58071;SDS011;60383;46.626;18.866;2023-06-14T11:10:41;24.15;;;6.43;;
58071;SDS011;60383;46.626;18.866;2023-06-14T11:13:08;22.75;;;6.15;;
58071;SDS011;60383;46.626;18.866;2023-06-14T11:15:34;2.13;;;1.52;;
58071;SDS011;60383;46.626;18.866;2023-06-14T11:18:01;2.80;;;1.58;;
58071;SDS011;60383;46.626;18.866;2023-06-14T11:20:29;2.25;;;1.65;;
58071;SDS011;60383;46.626;18.866;2023-06-14T11:22:56;1.90;;;1.48;;
58071;SDS011;60383;46.626;18.866;2023-06-14T11:25:22;2.10;;;1.38;;
58071;SDS011;60383;46.626;18.866;2023-06-14T11:27:51;1.95;;;1.30;;
58071;SDS011;60383;46.626;18.866;2023-06-14T11:30:17;2.65;;;1.70;;
58071;SDS011;60383;46.626;18.866;2023-06-14T11:32:46;2.83;;;1.88;;
58071;SDS011;60383;46.626;18.866;2023-06-14T11:35:13;1.85;;;1.40;;
58071;SDS011;60383;46.626;18.866;2023-06-14T11:37:39;2.47;;;1.55;;
58071;SDS011;60383;46.626;18.866;2023-06-14T11:40:06;2.50;;;1.55;;
58071;SDS011;60383;46.626;18.866;2023-06-14T11:42:35;1.65;;;1.55;;
58071;SDS011;60383;46.626;18.866;2023-06-14T11:45:02;2.20;;;1.60;;
58071;SDS011;60383;46.626;18.866;2023-06-14T11:47:33;1.42;;;1.30;;
58071;SDS011;60383;46.626;18.866;2023-06-14T11:49:59;4.32;;;1.70;;
58071;SDS011;60383;46.626;18.866;2023-06-14T11:52:25;2.35;;;1.50;;
58071;SDS011;60383;46.626;18.866;2023-06-14T11:54:51;2.08;;;1.45;;
58071;SDS011;60383;46.626;18.866;2023-06-14T11:57:18;3.28;;;1.60;;
58071;SDS011;60383;46.626;18.866;2023-06-14T11:59:44;1.67;;;1.50;;
58071;SDS011;60383;46.626;18.866;2023-06-14T12:02:14;2.08;;;1.55;;
58071;SDS011;60383;46.626;18.866;2023-06-14T12:04:43;2.45;;;1.50;;
58071;SDS011;60383;46.626;18.866;2023-06-14T12:07:09;1.95;;;1.60;;
58071;SDS011;60383;46.626;18.866;2023-06-14T12:10:22;1.67;;;1.50;;
58071;SDS011;60383;46.626;18.866;2023-06-14T12:12:39;1.67;;;1.48;;
58071;SDS011;60383;46.626;18.866;2023-06-14T12:15:08;2.05;;;1.85;;
58071;SDS011;60383;46.626;18.866;2023-06-14T12:17:37;3.53;;;1.50;;
58071;SDS011;60383;46.626;18.866;2023-06-14T12:20:10;2.88;;;1.35;;
58071;SDS011;60383;46.626;18.866;2023-06-14T12:22:51;1.95;;;1.60;;
58071;SDS011;60383;46.626;18.866;2023-06-14T12:27:56;1.77;;;1.40;;
58071;SDS011;60383;46.626;18.866;2023-06-14T12:30:22;1.50;;;1.40;;
58071;SDS011;60383;46.626;18.866;2023-06-14T12:32:48;1.55;;;1.40;;
58071;SDS011;60383;46.626;18.866;2023-06-14T12:35:14;2.90;;;1.60;;
58071;SDS011;60383;46.626;18.866;2023-06-14T12:37:40;1.83;;;1.63;;
58071;SDS011;60383;46.626;18.866;2023-06-14T12:40:06;3.17;;;1.38;;
58071;SDS011;60383;46.626;18.866;2023-06-14T12:42:32;2.00;;;1.70;;
58071;SDS011;60383;46.626;18.866;2023-06-14T12:45:01;1.85;;;1.67;;
58071;SDS011;60383;46.626;18.866;2023-06-14T12:47:28;1.90;;;1.63;;
58071;SDS011;60383;46.626;18.866;2023-06-14T12:49:53;2.42;;;1.95;;
58071;SDS011;60383;46.626;18.866;2023-06-14T12:52:18;2.17;;;1.40;;
58071;SDS011;60383;46.626;18.866;2023-06-14T12:54:44;2.38;;;1.65;;
58071;SDS011;60383;46.626;18.866;2023-06-14T12:57:10;2.15;;;1.80;;
58071;SDS011;60383;46.626;18.866;2023-06-14T12:59:36;1.83;;;1.50;;
58071;SDS011;60383;46.626;18.866;2023-06-14T13:04:37;3.13;;;1.55;;
58071;SDS011;60383;46.626;18.866;2023-06-14T13:07:02;1.92;;;1.65;;
58071;SDS011;60383;46.626;18.866;2023-06-14T13:09:28;2.03;;;1.63;;
58071;SDS011;60383;46.626;18.866;2023-06-14T13:11:53;1.75;;;1.50;;
58071;SDS011;60383;46.626;18.866;2023-06-14T13:14:19;3.10;;;1.60;;
58071;SDS011;60383;46.626;18.866;2023-06-14T13:16:45;2.42;;;1.70;;
58071;SDS011;60383;46.626;18.866;2023-06-14T13:19:10;1.88;;;1.52;;
58071;SDS011;60383;46.626;18.866;2023-06-14T13:21:37;2.25;;;1.33;;
58071;SDS011;60383;46.626;18.866;2023-06-14T13:24:03;2.60;;;1.50;;
58071;SDS011;60383;46.626;18.866;2023-06-14T13:26:29;1.80;;;1.63;;
58071;SDS011;60383;46.626;18.866;2023-06-14T13:28:54;1.67;;;1.50;;
58071;SDS011;60383;46.626;18.866;2023-06-14T13:31:20;2.03;;;1.50;;
58071;SDS011;60383;46.626;18.866;2023-06-14T13:33:45;1.50;;;1.40;;
58071;SDS011;60383;46.626;18.866;2023-06-14T13:36:11;1.98;;;1.42;;
58071;SDS011;60383;46.626;18.866;2023-06-14T13:38:36;2.28;;;1.75;;
58071;SDS011;60383;46.626;18.866;2023-06-14T13:41:02;1.55;;;1.40;;
58071;SDS011;60383;46.626;18.866;2023-06-14T13:43:27;2.17;;;1.77;;
58071;SDS011;60383;46.626;18.866;2023-06-14T13:45:53;2.15;;;1.42;;
58071;SDS011;60383;46.626;18.866;2023-06-14T13:48:19;2.05;;;1.67;;
58071;SDS011;60383;46.626;18.866;2023-06-14T13:50:44;1.77;;;1.60;;
58071;SDS011;60383;46.626;18.866;2023-06-14T13:53:11;3.08;;;1.67;;
58071;SDS011;60383;46.626;18.866;2023-06-14T13:55:36;2.45;;;1.60;;
58071;SDS011;60383;46.626;18.866;2023-06-14T13:58:02;1.75;;;1.42;;
58071;SDS011;60383;46.626;18.866;2023-06-14T14:00:27;1.98;;;1.55;;
58071;SDS011;60383;46.626;18.866;2023-06-14T14:02:53;1.75;;;1.60;;
58071;SDS011;60383;46.626;18.866;2023-06-14T14:05:19;1.60;;;1.40;;
58071;SDS011;60383;46.626;18.866;2023-06-14T14:07:45;2.03;;;1.70;;
58071;SDS011;60383;46.626;18.866;2023-06-14T14:10:11;2.55;;;1.63;;
58071;SDS011;60383;46.626;18.866;2023-06-14T14:12:38;2.75;;;1.80;;
58071;SDS011;60383;46.626;18.866;2023-06-14T14:15:04;1.95;;;1.67;;
58071;SDS011;60383;46.626;18.866;2023-06-14T14:17:37;2.35;;;1.67;;
58071;SDS011;60383;46.626;18.866;2023-06-14T14:20:02;2.42;;;1.75;;
58071;SDS011;60383;46.626;18.866;2023-06-14T14:22:28;1.63;;;1.50;;
58071;SDS011;60383;46.626;18.866;2023-06-14T14:24:53;2.13;;;1.60;;
58071;SDS011;60383;46.626;18.866;2023-06-14T14:27:19;2.08;;;1.77;;
58071;SDS011;60383;46.626;18.866;2023-06-14T14:29:44;1.95;;;1.50;;
58071;SDS011;60383;46.626;18.866;2023-06-14T14:32:10;1.98;;;1.70;;
58071;SDS011;60383;46.626;18.866;2023-06-14T14:34:38;2.00;;;1.48;;
58071;SDS011;60383;46.626;18.866;2023-06-14T14:37:04;2.33;;;1.75;;
58071;SDS011;60383;46.626;18.866;2023-06-14T14:39:30;2.60;;;1.50;;
58071;SDS011;60383;46.626;18.866;2023-06-14T14:41:55;1.60;;;1.50;;
58071;SDS011;60383;46.626;18.866;2023-06-14T14:44:21;1.90;;;1.50;;
58071;SDS011;60383;46.626;18.866;2023-06-14T14:46:46;1.92;;;1.58;;
58071;SDS011;60383;46.626;18.866;2023-06-14T14:49:12;2.60;;;1.70;;
58071;SDS011;60383;46.626;18.866;2023-06-14T14:51:37;3.47;;;2.35;;
58071;SDS011;60383;46.626;18.866;2023-06-14T14:54:05;2.50;;;1.80;;
58071;SDS011;60383;46.626;18.866;2023-06-14T14:56:31;2.95;;;2.05;;
58071;SDS011;60383;46.626;18.866;2023-06-14T14:58:56;2.58;;;1.75;;